sensor_id;sensor_type;location;lat;lon;timestamp;pressure;altitude;pressure_sealevel;temperature;humidity
70304;BME280;57712;48.752;11.348;2023-03-05T00:00:46;97731.75;;;0.85;100.00
70304;BME280;57712;48.752;11.348;2023-03-05T00:03:12;97729.91;;;0.90;100.00
70304;BME280;57712;48.752;11.348;2023-03-05T00:05:39;97731.38;;;1.03;100.00
70304;BME280;57712;48.752;11.348;2023-03-05T00:08:06;97725.72;;;0.92;100.00
70304;BME280;57712;48.752;11.348;2023-03-05T00:10:32;97731.84;;;0.89;100.00
70304;BME280;57712;48.752;11.348;2023-03-05T00:12:59;97725.84;;;0.96;100.00
70304;BME280;57712;48.752;11.348;2023-03-05T00:15:25;97725.13;;;0.83;100.00
70304;BME280;57712;48.752;11.348;2023-03-05T00:17:52;97727.22;;;0.90;100.00
70304;BME280;57712;48.752;11.348;2023-03-05T00:20:18;97724.09;;;0.88;100.00
70304;BME280;57712;48.752;11.348;2023-03-05T00:22:45;97724.53;;;0.90;100.00
70304;BME280;57712;48.752;11.348;2023-03-05T00:25:11;97725.06;;;0.95;100.00
70304;BME280;57712;48.752;11.348;2023-03-05T00:27:38;97714.53;;;0.90;100.00
70304;BME280;57712;48.752;11.348;2023-03-05T00:30:05;97719.56;;;0.92;100.00
70304;BME280;57712;48.752;11.348;2023-03-05T00:32:35;97714.81;;;0.85;100.00
70304;BME280;57712;48.752;11.348;2023-03-05T00:35:01;97714.28;;;0.95;100.00
70304;BME280;57712;48.752;11.348;2023-03-05T00:37:28;97709.84;;;0.87;100.00
70304;BME280;57712;48.752;11.348;2023-03-05T00:39:54;97711.41;;;0.88;100.00
70304;BME280;57712;48.752;11.348;2023-03-05T00:42:21;97712.72;;;0.94;100.00
70304;BME280;57712;48.752;11.348;2023-03-05T00:44:48;97704.41;;;1.03;100.00
70304;BME280;57712;48.752;11.348;2023-03-05T00:47:14;97704.69;;;0.98;100.00
70304;BME280;57712;48.752;11.348;2023-03-05T00:49:43;97710.44;;;0.96;100.00
70304;BME280;57712;48.752;11.348;2023-03-05T00:52:10;97705.91;;;1.00;100.00
70304;BME280;57712;48.752;11.348;2023-03-05T00:54:37;97698.22;;;1.02;100.00
70304;BME280;57712;48.752;11.348;2023-03-05T00:57:03;97703.56;;;0.99;100.00
70304;BME280;57712;48.752;11.348;2023-03-05T00:59:31;97691.03;;;1.06;100.00
70304;BME280;57712;48.752;11.348;2023-03-05T01:01:57;97695.81;;;0.97;100.00
70304;BME280;57712;48.752;11.348;2023-03-05T01:04:24;97690.41;;;0.97;100.00
70304;BME280;57712;48.752;11.348;2023-03-05T01:06:50;97684.25;;;0.97;100.00
70304;BME280;57712;48.752;11.348;2023-03-05T01:09:17;97681.91;;;0.95;100.00
70304;BME280;57712;48.752;11.348;2023-03-05T01:11:43;97688.50;;;0.98;100.00
70304;BME280;57712;48.752;11.348;2023-03-05T01:14:10;97681.03;;;0.91;100.00
70304;BME280;57712;48.752;11.348;2023-03-05T01:16:37;97676.50;;;0.95;100.00
70304;BME280;57712;48.752;11.348;2023-03-05T01:19:03;97679.22;;;0.95;100.00
70304;BME280;57712;48.752;11.348;2023-03-05T01:21:30;97679.63;;;0.97;100.00
70304;BME280;57712;48.752;11.348;2023-03-05T01:23:57;97663.63;;;1.04;100.00
70304;BME280;57712;48.752;11.348;2023-03-05T01:26:24;97673.53;;;1.00;100.00
70304;BME280;57712;48.752;11.348;2023-03-05T01:28:50;97673.22;;;0.86;100.00
70304;BME280;57712;48.752;11.348;2023-03-05T01:31:17;97665.00;;;0.98;100.00
70304;BME280;57712;48.752;11.348;2023-03-05T01:33:44;97666.03;;;1.09;100.00
70304;BME280;57712;48.752;11.348;2023-03-05T01:36:12;97668.91;;;1.01;100.00
70304;BME280;57712;48.752;11.348;2023-03-05T01:38:45;97667.66;;;0.95;100.00
70304;BME280;57712;48.752;11.348;2023-03-05T01:41:14;97659.56;;;0.95;100.00
70304;BME280;57712;48.752;11.348;2023-03-05T01:43:41;97653.88;;;1.00;100.00
70304;BME280;57712;48.752;11.348;2023-03-05T01:46:33;97657.59;;;1.11;100.00
70304;BME280;57712;48.752;11.348;2023-03-05T01:51:35;97657.66;;;1.14;100.00
70304;BME280;57712;48.752;11.348;2023-03-05T01:54:05;97657.66;;;1.14;100.00
70304;BME280;57712;48.752;11.348;2023-03-05T01:56:32;97639.91;;;1.13;100.00
70304;BME280;57712;48.752;11.348;2023-03-05T01:59:00;97645.31;;;1.13;100.00
70304;BME280;57712;48.752;11.348;2023-03-05T02:01:39;97639.06;;;1.09;100.00
70304;BME280;57712;48.752;11.348;2023-03-05T02:04:08;97647.03;;;1.22;100.00
70304;BME280;57712;48.752;11.348;2023-03-05T02:06:35;97636.22;;;1.22;100.00
70304;BME280;57712;48.752;11.348;2023-03-05T02:09:02;97641.06;;;1.32;100.00
70304;BME280;57712;48.752;11.348;2023-03-05T02:11:29;97637.53;;;1.28;100.00
70304;BME280;57712;48.752;11.348;2023-03-05T02:13:56;97636.22;;;1.22;100.00
70304;BME280;57712;48.752;11.348;2023-03-05T02:16:23;97630.84;;;1.22;100.00
70304;BME280;57712;48.752;11.348;2023-03-05T02:18:49;97624.03;;;1.28;100.00
70304;BME280;57712;48.752;11.348;2023-03-05T02:21:27;97618.41;;;1.17;100.00
70304;BME280;57712;48.752;11.348;2023-03-05T02:23:54;97611.53;;;1.20;100.00
70304;BME280;57712;48.752;11.348;2023-03-05T02:26:21;97610.41;;;1.40;100.00
70304;BME280;57712;48.752;11.348;2023-03-05T02:28:57;97608.53;;;1.25;100.00
70304;BME280;57712;48.752;11.348;2023-03-05T02:31:25;97603.44;;;1.20;100.00
70304;BME280;57712;48.752;11.348;2023-03-05T02:33:52;97604.78;;;1.29;100.00
70304;BME280;57712;48.752;11.348;2023-03-05T02:36:19;97597.94;;;1.35;100.00
70304;BME280;57712;48.752;11.348;2023-03-05T02:38:47;97601.47;;;1.36;100.00
70304;BME280;57712;48.752;11.348;2023-03-05T02:41:14;97595.91;;;1.29;100.00
70304;BME280;57712;48.752;11.348;2023-03-05T02:43:41;97597.63;;;1.18;100.00
70304;BME280;57712;48.752;11.348;2023-03-05T02:46:08;97597.75;;;1.25;100.00
70304;BME280;57712;48.752;11.348;2023-03-05T02:48:34;97606.34;;;1.30;100.00
70304;BME280;57712;48.752;11.348;2023-03-05T02:51:02;97593.41;;;1.20;100.00
70304;BME280;57712;48.752;11.348;2023-03-05T02:53:29;97593.72;;;1.15;100.00
70304;BME280;57712;48.752;11.348;2023-03-05T02:55:55;97596.19;;;1.24;100.00
70304;BME280;57712;48.752;11.348;2023-03-05T02:58:22;97597.63;;;1.18;100.00
70304;BME280;57712;48.752;11.348;2023-03-05T03:00:48;97586.25;;;1.28;100.00
70304;BME280;57712;48.752;11.348;2023-03-05T03:03:15;97584.91;;;1.37;100.00
70304;BME280;57712;48.752;11.348;2023-03-05T03:05:41;97582.13;;;1.34;100.00
70304;BME280;57712;48.752;11.348;2023-03-05T03:08:08;97583.13;;;1.26;100.00
70304;BME280;57712;48.752;11.348;2023-03-05T03:10:36;97571.78;;;1.17;100.00
70304;BME280;57712;48.752;11.348;2023-03-05T03:13:02;97572.13;;;1.15;100.00
70304;BME280;57712;48.752;11.348;2023-03-05T03:15:29;97563.94;;;1.11;100.00
70304;BME280;57712;48.752;11.348;2023-03-05T03:17:55;97561.56;;;1.26;100.00
70304;BME280;57712;48.752;11.348;2023-03-05T03:20:22;97567.22;;;1.21;100.00
70304;BME280;57712;48.752;11.348;2023-03-05T03:22:49;97564.72;;;1.12;100.00
70304;BME280;57712;48.752;11.348;2023-03-05T03:25:18;97566.22;;;1.29;100.00
70304;BME280;57712;48.752;11.348;2023-03-05T03:27:45;97563.91;;;1.27;100.00
70304;BME280;57712;48.752;11.348;2023-03-05T03:30:12;97565.09;;;1.10;100.00
70304;BME280;57712;48.752;11.348;2023-03-05T03:32:39;97555.94;;;1.15;100.00
70304;BME280;57712;48.752;11.348;2023-03-05T03:35:06;97551.13;;;1.05;100.00
70304;BME280;57712;48.752;11.348;2023-03-05T03:37:33;97548.91;;;1.10;100.00
70304;BME280;57712;48.752;11.348;2023-03-05T03:39:59;97549.69;;;1.11;100.00
70304;BME280;57712;48.752;11.348;2023-03-05T03:42:26;97555.03;;;1.07;100.00
70304;BME280;57712;48.752;11.348;2023-03-05T03:44:53;97542.69;;;1.06;100.00
70304;BME280;57712;48.752;11.348;2023-03-05T03:47:19;97542.78;;;1.13;100.00
70304;BME280;57712;48.752;11.348;2023-03-05T03:49:46;97531.88;;;1.06;100.00
70304;BME280;57712;48.752;11.348;2023-03-05T03:52:12;97539.69;;;1.11;100.00
70304;BME280;57712;48.752;11.348;2023-03-05T03:54:39;97540.41;;;1.08;100.00
70304;BME280;57712;48.752;11.348;2023-03-05T03:57:06;97534.78;;;1.17;100.00
70304;BME280;57712;48.752;11.348;2023-03-05T03:59:32;97531.31;;;1.17;100.00
70304;BME280;57712;48.752;11.348;2023-03-05T04:01:59;97524.28;;;1.12;100.00
70304;BME280;57712;48.752;11.348;2023-03-05T04:04:25;97533.03;;;1.05;100.00
70304;BME280;57712;48.752;11.348;2023-03-05T04:06:55;97530.03;;;1.10;100.00
70304;BME280;57712;48.752;11.348;2023-03-05T04:09:21;97529.59;;;1.08;100.00
70304;BME280;57712;48.752;11.348;2023-03-05T04:11:48;97526.84;;;1.05;100.00
70304;BME280;57712;48.752;11.348;2023-03-05T04:14:14;97532.56;;;1.03;100.00
70304;BME280;57712;48.752;11.348;2023-03-05T04:16:41;97532.31;;;1.08;100.00
70304;BME280;57712;48.752;11.348;2023-03-05T04:19:07;97520.44;;;1.13;100.00
70304;BME280;57712;48.752;11.348;2023-03-05T04:21:34;97524.56;;;1.07;100.00
70304;BME280;57712;48.752;11.348;2023-03-05T04:24:00;97526.91;;;1.08;100.00
70304;BME280;57712;48.752;11.348;2023-03-05T04:26:26;97518.03;;;1.08;100.00
70304;BME280;57712;48.752;11.348;2023-03-05T04:28:53;97520.38;;;1.29;100.00
70304;BME280;57712;48.752;11.348;2023-03-05T04:31:20;97520.53;;;1.17;100.00
70304;BME280;57712;48.752;11.348;2023-03-05T04:33:46;97514.69;;;1.14;100.00
70304;BME280;57712;48.752;11.348;2023-03-05T04:36:13;97523.00;;;1.25;100.00
70304;BME280;57712;48.752;11.348;2023-03-05T04:38:39;97517.66;;;1.29;100.00
70304;BME280;57712;48.752;11.348;2023-03-05T04:41:06;97516.22;;;1.35;100.00
70304;BME280;57712;48.752;11.348;2023-03-05T04:43:32;97510.16;;;1.19;100.00
70304;BME280;57712;48.752;11.348;2023-03-05T04:45:59;97508.22;;;1.19;100.00
70304;BME280;57712;48.752;11.348;2023-03-05T04:48:25;97506.00;;;1.25;100.00
70304;BME280;57712;48.752;11.348;2023-03-05T04:50:52;97511.34;;;1.21;100.00
70304;BME280;57712;48.752;11.348;2023-03-05T04:53:19;97510.28;;;1.26;100.00
70304;BME280;57712;48.752;11.348;2023-03-05T04:55:51;97503.19;;;1.37;100.00
70304;BME280;57712;48.752;11.348;2023-03-05T04:58:17;97509.84;;;1.24;100.00
70304;BME280;57712;48.752;11.348;2023-03-05T05:00:44;97500.63;;;1.25;100.00
70304;BME280;57712;48.752;11.348;2023-03-05T05:03:11;97499.50;;;1.26;100.00
70304;BME280;57712;48.752;11.348;2023-03-05T05:05:37;97490.97;;;1.24;100.00
70304;BME280;57712;48.752;11.348;2023-03-05T05:08:04;97496.81;;;1.26;100.00
70304;BME280;57712;48.752;11.348;2023-03-05T05:10:30;97496.44;;;1.27;100.00
70304;BME280;57712;48.752;11.348;2023-03-05T05:12:57;97500.56;;;1.21;100.00
70304;BME280;57712;48.752;11.348;2023-03-05T05:15:23;97500.75;;;1.32;100.00
70304;BME280;57712;48.752;11.348;2023-03-05T05:17:50;97498.78;;;1.29;100.00
70304;BME280;57712;48.752;11.348;2023-03-05T05:20:17;97491.41;;;1.26;100.00
70304;BME280;57712;48.752;11.348;2023-03-05T05:22:45;97492.59;;;1.28;100.00
70304;BME280;57712;48.752;11.348;2023-03-05T05:25:11;97494.53;;;1.28;100.00
70304;BME280;57712;48.752;11.348;2023-03-05T05:27:39;97499.69;;;1.36;100.00
70304;BME280;57712;48.752;11.348;2023-03-05T05:30:06;97492.03;;;1.19;100.00
70304;BME280;57712;48.752;11.348;2023-03-05T05:32:33;97498.41;;;1.30;100.00
70304;BME280;57712;48.752;11.348;2023-03-05T05:35:00;97500.41;;;1.33;100.00
70304;BME280;57712;48.752;11.348;2023-03-05T05:37:28;97503.75;;;1.27;100.00
70304;BME280;57712;48.752;11.348;2023-03-05T05:39:54;97497.09;;;1.21;100.00
70304;BME280;57712;48.752;11.348;2023-03-05T05:42:23;97493.06;;;1.34;100.00
70304;BME280;57712;48.752;11.348;2023-03-05T05:44:50;97489.13;;;1.28;100.00
70304;BME280;57712;48.752;11.348;2023-03-05T05:47:17;97485.00;;;1.14;100.00
70304;BME280;57712;48.752;11.348;2023-03-05T05:49:44;97483.06;;;1.34;100.00
70304;BME280;57712;48.752;11.348;2023-03-05T05:52:10;97482.44;;;1.22;100.00
70304;BME280;57712;48.752;11.348;2023-03-05T05:54:37;97490.97;;;1.24;100.00
70304;BME280;57712;48.752;11.348;2023-03-05T05:57:04;97490.97;;;1.24;100.00
70304;BME280;57712;48.752;11.348;2023-03-05T05:59:31;97487.75;;;1.37;100.00
70304;BME280;57712;48.752;11.348;2023-03-05T06:01:58;97494.63;;;1.35;100.00
70304;BME280;57712;48.752;11.348;2023-03-05T06:04:25;97488.97;;;1.40;100.00
70304;BME280;57712;48.752;11.348;2023-03-05T06:06:52;97487.09;;;1.44;100.00
70304;BME280;57712;48.752;11.348;2023-03-05T06:09:18;97501.44;;;1.25;100.00
70304;BME280;57712;48.752;11.348;2023-03-05T06:11:45;97481.50;;;1.33;100.00
70304;BME280;57712;48.752;11.348;2023-03-05T06:14:12;97481.59;;;1.37;100.00
70304;BME280;57712;48.752;11.348;2023-03-05T06:16:38;97482.66;;;1.13;100.00
70304;BME280;57712;48.752;11.348;2023-03-05T06:19:05;97477.06;;;1.22;100.00
70304;BME280;57712;48.752;11.348;2023-03-05T06:21:32;97462.94;;;1.28;100.00
70304;BME280;57712;48.752;11.348;2023-03-05T06:23:59;97465.13;;;1.23;100.00
70304;BME280;57712;48.752;11.348;2023-03-05T06:26:25;97482.03;;;1.20;100.00
70304;BME280;57712;48.752;11.348;2023-03-05T06:28:52;97512.69;;;1.31;100.00
70304;BME280;57712;48.752;11.348;2023-03-05T06:31:24;97510.78;;;1.31;100.00
70304;BME280;57712;48.752;11.348;2023-03-05T06:33:56;97503.66;;;1.42;100.00
70304;BME280;57712;48.752;11.348;2023-03-05T06:36:24;97509.41;;;1.41;100.00
70304;BME280;57712;48.752;11.348;2023-03-05T06:38:52;97510.38;;;1.52;100.00
70304;BME280;57712;48.752;11.348;2023-03-05T06:41:24;97505.03;;;1.56;100.00
70304;BME280;57712;48.752;11.348;2023-03-05T06:43:51;97500.34;;;1.53;100.00
70304;BME280;57712;48.752;11.348;2023-03-05T06:48:46;97497.88;;;1.44;100.00
70304;BME280;57712;48.752;11.348;2023-03-05T06:51:21;97486.84;;;1.30;100.00
70304;BME280;57712;48.752;11.348;2023-03-05T06:53:48;97498.38;;;1.07;100.00
70304;BME280;57712;48.752;11.348;2023-03-05T06:56:15;97494.69;;;1.15;100.00
70304;BME280;57712;48.752;11.348;2023-03-05T06:58:44;97486.31;;;1.01;100.00
70304;BME280;57712;48.752;11.348;2023-03-05T07:01:12;97490.41;;;1.14;100.00
70304;BME280;57712;48.752;11.348;2023-03-05T07:03:40;97485.63;;;1.04;100.00
70304;BME280;57712;48.752;11.348;2023-03-05T07:06:12;97482.09;;;1.23;100.00
70304;BME280;57712;48.752;11.348;2023-03-05T07:08:39;97489.50;;;1.26;100.00
70304;BME280;57712;48.752;11.348;2023-03-05T07:11:16;97481.59;;;1.37;100.00
70304;BME280;57712;48.752;11.348;2023-03-05T07:13:44;97497.78;;;1.37;100.00
70304;BME280;57712;48.752;11.348;2023-03-05T07:16:18;97487.09;;;1.44;100.00
70304;BME280;57712;48.752;11.348;2023-03-05T07:18:45;97492.63;;;1.51;100.00
70304;BME280;57712;48.752;11.348;2023-03-05T07:21:17;97491.13;;;1.54;100.00
70304;BME280;57712;48.752;11.348;2023-03-05T07:23:45;97487.22;;;1.51;100.00
70304;BME280;57712;48.752;11.348;2023-03-05T07:26:11;97481.09;;;1.54;100.00
70304;BME280;57712;48.752;11.348;2023-03-05T07:28:38;97486.63;;;1.61;100.00
70304;BME280;57712;48.752;11.348;2023-03-05T07:31:07;97481.50;;;1.56;100.00
70304;BME280;57712;48.752;11.348;2023-03-05T07:33:34;97480.41;;;1.57;100.00
70304;BME280;57712;48.752;11.348;2023-03-05T07:36:07;97479.44;;;1.46;100.00
70304;BME280;57712;48.752;11.348;2023-03-05T07:38:33;97476.13;;;1.56;100.00
70304;BME280;57712;48.752;11.348;2023-03-05T07:41:05;97474.56;;;1.55;100.00
70304;BME280;57712;48.752;11.348;2023-03-05T07:43:32;97473.97;;;1.42;100.00
70304;BME280;57712;48.752;11.348;2023-03-05T07:46:02;97475.41;;;1.36;100.00
70304;BME280;57712;48.752;11.348;2023-03-05T07:48:28;97473.59;;;1.44;100.00
70304;BME280;57712;48.752;11.348;2023-03-05T07:51:06;97472.53;;;1.49;100.00
70304;BME280;57712;48.752;11.348;2023-03-05T07:53:33;97469.16;;;1.55;100.00
70304;BME280;57712;48.752;11.348;2023-03-05T07:56:00;97472.59;;;1.52;100.00
70304;BME280;57712;48.752;11.348;2023-03-05T07:58:26;97472.72;;;1.59;100.00
70304;BME280;57712;48.752;11.348;2023-03-05T08:00:53;97471.25;;;1.65;100.00
70304;BME280;57712;48.752;11.348;2023-03-05T08:03:20;97465.84;;;1.65;100.00
70304;BME280;57712;48.752;11.348;2023-03-05T08:05:46;97464.03;;;1.69;100.00
70304;BME280;57712;48.752;11.348;2023-03-05T08:08:13;97459.97;;;1.83;100.00
70304;BME280;57712;48.752;11.348;2023-03-05T08:10:39;97462.25;;;1.81;100.00
70304;BME280;57712;48.752;11.348;2023-03-05T08:13:06;97463.25;;;1.95;100.00
70304;BME280;57712;48.752;11.348;2023-03-05T08:15:33;97455.53;;;1.94;100.00
70304;BME280;57712;48.752;11.348;2023-03-05T08:18:00;97454.28;;;1.88;100.00
70304;BME280;57712;48.752;11.348;2023-03-05T08:20:26;97452.53;;;1.99;100.00
70304;BME280;57712;48.752;11.348;2023-03-05T08:22:53;97450.44;;;2.15;100.00
70304;BME280;57712;48.752;11.348;2023-03-05T08:25:19;97451.28;;;2.19;100.00
70304;BME280;57712;48.752;11.348;2023-03-05T08:27:47;97445.19;;;2.26;100.00
70304;BME280;57712;48.752;11.348;2023-03-05T08:30:17;97449.91;;;2.33;100.00
70304;BME280;57712;48.752;11.348;2023-03-05T08:32:44;97448.34;;;2.31;100.00
70304;BME280;57712;48.752;11.348;2023-03-05T08:35:11;97448.72;;;2.30;100.00
70304;BME280;57712;48.752;11.348;2023-03-05T08:37:37;97441.44;;;2.34;100.00
70304;BME280;57712;48.752;11.348;2023-03-05T08:40:04;97446.00;;;2.60;100.00
70304;BME280;57712;48.752;11.348;2023-03-05T08:42:31;97447.94;;;2.59;100.00
70304;BME280;57712;48.752;11.348;2023-03-05T08:44:58;97441.66;;;2.52;100.00
70304;BME280;57712;48.752;11.348;2023-03-05T08:47:24;97445.00;;;2.42;100.00
70304;BME280;57712;48.752;11.348;2023-03-05T08:49:52;97439.59;;;2.72;100.00
70304;BME280;57712;48.752;11.348;2023-03-05T08:52:21;97445.28;;;2.63;100.00
70304;BME280;57712;48.752;11.348;2023-03-05T08:54:48;97436.41;;;2.96;100.00
70304;BME280;57712;48.752;11.348;2023-03-05T08:57:15;97438.16;;;2.81;100.00
70304;BME280;57712;48.752;11.348;2023-03-05T08:59:42;97443.06;;;3.06;100.00
70304;BME280;57712;48.752;11.348;2023-03-05T09:02:11;97439.00;;;2.89;100.00
70304;BME280;57712;48.752;11.348;2023-03-05T09:04:38;97442.97;;;2.99;100.00
70304;BME280;57712;48.752;11.348;2023-03-05T09:07:05;97439.78;;;2.89;100.00
70304;BME280;57712;48.752;11.348;2023-03-05T09:09:31;97444.78;;;2.87;100.00
70304;BME280;57712;48.752;11.348;2023-03-05T09:11:59;97439.09;;;2.96;100.00
70304;BME280;57712;48.752;11.348;2023-03-05T09:14:25;97432.69;;;2.78;100.00
70304;BME280;57712;48.752;11.348;2023-03-05T09:16:55;97437.63;;;2.69;100.00
70304;BME280;57712;48.752;11.348;2023-03-05T09:19:23;97441.94;;;2.73;100.00
70304;BME280;57712;48.752;11.348;2023-03-05T09:21:49;97428.31;;;3.00;100.00
70304;BME280;57712;48.752;11.348;2023-03-05T09:24:16;97431.16;;;2.77;100.00
70304;BME280;57712;48.752;11.348;2023-03-05T09:26:42;97435.94;;;2.90;100.00
70304;BME280;57712;48.752;11.348;2023-03-05T09:29:09;97426.75;;;2.99;100.00
70304;BME280;57712;48.752;11.348;2023-03-05T09:31:36;97424.63;;;3.15;100.00
70304;BME280;57712;48.752;11.348;2023-03-05T09:34:04;97422.97;;;3.07;100.00
70304;BME280;57712;48.752;11.348;2023-03-05T09:36:31;97416.63;;;3.29;100.00
70304;BME280;57712;48.752;11.348;2023-03-05T09:38:57;97419.22;;;3.18;100.00
70304;BME280;57712;48.752;11.348;2023-03-05T09:46:50;97420.84;;;3.23;100.00
70304;BME280;57712;48.752;11.348;2023-03-05T09:52:15;97420.56;;;3.35;100.00
70304;BME280;57712;48.752;11.348;2023-03-05T09:54:44;97419.25;;;3.22;100.00
70304;BME280;57712;48.752;11.348;2023-03-05T09:57:19;97415.03;;;3.25;100.00
70304;BME280;57712;48.752;11.348;2023-03-05T09:59:53;97418.00;;;3.12;100.00
70304;BME280;57712;48.752;11.348;2023-03-05T10:07:40;97399.63;;;3.32;100.00
70304;BME280;57712;48.752;11.348;2023-03-05T10:10:14;97406.25;;;3.38;100.00
70304;BME280;57712;48.752;11.348;2023-03-05T10:12:45;97400.16;;;3.48;100.00
70304;BME280;57712;48.752;11.348;2023-03-05T10:26:08;97391.19;;;3.92;100.00
70304;BME280;57712;48.752;11.348;2023-03-05T10:28:45;97389.72;;;4.02;100.00
70304;BME280;57712;48.752;11.348;2023-03-05T10:42:27;97371.63;;;3.62;100.00
70304;BME280;57712;48.752;11.348;2023-03-05T10:45:07;97366.34;;;3.76;100.00
70304;BME280;57712;48.752;11.348;2023-03-05T10:47:56;97364.69;;;3.64;100.00
70304;BME280;57712;48.752;11.348;2023-03-05T10:50:39;97361.63;;;3.66;100.00
70304;BME280;57712;48.752;11.348;2023-03-05T10:55:51;97357.69;;;3.60;100.00
70304;BME280;57712;48.752;11.348;2023-03-05T10:58:23;97353.53;;;3.73;100.00
70304;BME280;57712;48.752;11.348;2023-03-05T11:01:05;97359.34;;;3.75;100.00
70304;BME280;57712;48.752;11.348;2023-03-05T11:06:38;97346.28;;;3.91;100.00
70304;BME280;57712;48.752;11.348;2023-03-05T11:09:22;97341.59;;;3.81;100.00
70304;BME280;57712;48.752;11.348;2023-03-05T11:12:03;97344.84;;;4.08;100.00
70304;BME280;57712;48.752;11.348;2023-03-05T11:14:35;97332.41;;;4.03;100.00
70304;BME280;57712;48.752;11.348;2023-03-05T11:23:24;97335.50;;;3.98;100.00
70304;BME280;57712;48.752;11.348;2023-03-05T11:28:33;97316.97;;;4.15;100.00
70304;BME280;57712;48.752;11.348;2023-03-05T11:31:21;97316.19;;;4.07;100.00
70304;BME280;57712;48.752;11.348;2023-03-05T11:33:59;97310.00;;;4.14;100.00
70304;BME280;57712;48.752;11.348;2023-03-05T11:39:09;97313.06;;;3.98;100.00
70304;BME280;57712;48.752;11.348;2023-03-05T11:41:40;97312.16;;;3.76;100.00
70304;BME280;57712;48.752;11.348;2023-03-05T11:44:19;97305.91;;;3.65;100.00
70304;BME280;57712;48.752;11.348;2023-03-05T11:46:50;97308.25;;;3.70;100.00
70304;BME280;57712;48.752;11.348;2023-03-05T11:49:21;97290.50;;;3.76;100.00
70304;BME280;57712;48.752;11.348;2023-03-05T11:52:11;97303.66;;;3.81;100.00
70304;BME280;57712;48.752;11.348;2023-03-05T11:54:52;97295.88;;;3.72;100.00
70304;BME280;57712;48.752;11.348;2023-03-05T11:57:22;97296.63;;;3.66;100.00
70304;BME280;57712;48.752;11.348;2023-03-05T11:59:51;97293.91;;;3.66;100.00
70304;BME280;57712;48.752;11.348;2023-03-05T12:02:22;97285.03;;;3.72;100.00
70304;BME280;57712;48.752;11.348;2023-03-05T12:04:49;97273.41;;;3.72;100.00
70304;BME280;57712;48.752;11.348;2023-03-05T12:07:21;97271.09;;;3.74;100.00
70304;BME280;57712;48.752;11.348;2023-03-05T12:09:53;97269.66;;;3.87;100.00
70304;BME280;57712;48.752;11.348;2023-03-05T12:20:11;97252.75;;;4.33;100.00
70304;BME280;57712;48.752;11.348;2023-03-05T12:22:40;97253.56;;;4.41;100.00
70304;BME280;57712;48.752;11.348;2023-03-05T12:27:53;97251.88;;;4.00;100.00
70304;BME280;57712;48.752;11.348;2023-03-05T12:38:55;97237.47;;;3.82;100.00
70304;BME280;57712;48.752;11.348;2023-03-05T12:46:35;97229.34;;;3.82;100.00
70304;BME280;57712;48.752;11.348;2023-03-05T12:51:46;97214.13;;;3.53;100.00
70304;BME280;57712;48.752;11.348;2023-03-05T12:54:25;97223.00;;;3.46;100.00
70304;BME280;57712;48.752;11.348;2023-03-05T12:56:55;97224.59;;;3.58;100.00
70304;BME280;57712;48.752;11.348;2023-03-05T12:59:34;97210.25;;;3.54;100.00
70304;BME280;57712;48.752;11.348;2023-03-05T13:02:08;97207.97;;;3.63;100.00
70304;BME280;57712;48.752;11.348;2023-03-05T13:04:43;97209.19;;;3.65;100.00
70304;BME280;57712;48.752;11.348;2023-03-05T13:07:16;97205.31;;;3.73;100.00
70304;BME280;57712;48.752;11.348;2023-03-05T13:09:53;97202.97;;;3.65;100.00
70304;BME280;57712;48.752;11.348;2023-03-05T13:12:22;97206.06;;;3.63;100.00
70304;BME280;57712;48.752;11.348;2023-03-05T13:15:06;97201.47;;;3.78;100.00
70304;BME280;57712;48.752;11.348;2023-03-05T13:17:55;97206.13;;;3.78;100.00
70304;BME280;57712;48.752;11.348;2023-03-05T13:20:33;97195.31;;;3.85;100.00
70304;BME280;57712;48.752;11.348;2023-03-05T13:23:08;97197.63;;;3.79;100.00
70304;BME280;57712;48.752;11.348;2023-03-05T13:25:38;97203.38;;;3.74;100.00
70304;BME280;57712;48.752;11.348;2023-03-05T13:28:15;97207.69;;;3.82;100.00
70304;BME280;57712;48.752;11.348;2023-03-05T13:30:50;97203.81;;;3.76;100.00
70304;BME280;57712;48.752;11.348;2023-03-05T13:33:37;97205.34;;;3.77;100.00
70304;BME280;57712;48.752;11.348;2023-03-05T13:36:05;97198.78;;;3.82;100.00
70304;BME280;57712;48.752;11.348;2023-03-05T13:38:39;97196.03;;;3.71;100.00
70304;BME280;57712;48.752;11.348;2023-03-05T13:43:56;97199.59;;;3.93;100.00
70304;BME280;57712;48.752;11.348;2023-03-05T13:46:25;97196.88;;;3.93;100.00
70304;BME280;57712;48.752;11.348;2023-03-05T13:48:52;97196.50;;;3.87;100.00
70304;BME280;57712;48.752;11.348;2023-03-05T13:51:19;97189.88;;;3.81;100.00
70304;BME280;57712;48.752;11.348;2023-03-05T13:53:46;97186.06;;;3.96;100.00
70304;BME280;57712;48.752;11.348;2023-03-05T13:56:17;97182.22;;;3.97;100.00
70304;BME280;57712;48.752;11.348;2023-03-05T13:58:45;97191.06;;;3.91;100.00
70304;BME280;57712;48.752;11.348;2023-03-05T14:01:24;97189.09;;;3.84;100.00
70304;BME280;57712;48.752;11.348;2023-03-05T14:03:53;97179.84;;;3.96;100.00
70304;BME280;57712;48.752;11.348;2023-03-05T14:06:24;97179.47;;;3.94;100.00
70304;BME280;57712;48.752;11.348;2023-03-05T14:09:00;97175.63;;;4.02;100.00
70304;BME280;57712;48.752;11.348;2023-03-05T14:11:28;97170.56;;;3.86;100.00
70304;BME280;57712;48.752;11.348;2023-03-05T14:14:04;97174.41;;;3.85;100.00
70304;BME280;57712;48.752;11.348;2023-03-05T14:16:32;97179.44;;;3.83;100.00
70304;BME280;57712;48.752;11.348;2023-03-05T14:19:01;97169.00;;;3.89;100.00
70304;BME280;57712;48.752;11.348;2023-03-05T14:21:45;97177.47;;;3.73;100.00
70304;BME280;57712;48.752;11.348;2023-03-05T14:24:19;97170.16;;;3.84;100.00
70304;BME280;57712;48.752;11.348;2023-03-05T14:26:50;97158.16;;;3.85;100.00